Four Corners, California
Current Conditions -  °F | °C
As of 10:55 AM on Saturday 25 Oct 2014 (Local Time) from K9L2 Reporting Station
Clear Clear  
Wind Chill: 75°   Ceiling: Unl
Heat Index: 75°   Visibility: 10mi
Dew Point: 30°   Wind: 7mph
Humidity: 19%   Direction: 180°S
Pressure: 30.08"   Gusts: NA
Location:  35.0434°N, 117.645°W
Report Text: K9L2 251755Z AUTO 18006KT 10SM CLR 24/M01 A3008 RMK AO2 SLP173 T02391011 10239 20089 51004 $
Loading
Personal Weather Stations






























Interactive Weather Map
Tropical Storm Tracking
New forecast layout! Learn more

10-Day Weather Forecast

Advertisements
Track Severe Weather on mobile